createdAt,value
2022-12-03T00:00:10.515Z,11.30
2022-12-03T00:02:39.843Z,12.87
2022-12-03T00:05:07.438Z,11.20
2022-12-03T00:07:35.737Z,12.13
2022-12-03T00:10:03.256Z,12.30
2022-12-03T00:12:30.630Z,12.53
2022-12-03T00:14:58.472Z,12.63
2022-12-03T00:17:26.050Z,13.10
2022-12-03T00:19:53.523Z,12.43
2022-12-03T00:22:21.036Z,13.40
2022-12-03T00:24:48.302Z,12.50
2022-12-03T00:27:15.720Z,12.97
2022-12-03T00:29:45.266Z,12.23
2022-12-03T00:32:14.291Z,13.17
2022-12-03T00:34:41.811Z,13.07
2022-12-03T00:37:09.336Z,12.90
2022-12-03T00:39:36.659Z,13.57
2022-12-03T00:42:04.215Z,13.47
2022-12-03T00:44:31.695Z,14.43
2022-12-03T00:46:59.221Z,14.10
2022-12-03T00:49:26.648Z,14.97
2022-12-03T00:51:54.289Z,15.27
2022-12-03T00:54:24.522Z,14.50
2022-12-03T00:56:55.984Z,15.87
2022-12-03T00:59:23.476Z,14.13
2022-12-03T01:01:50.949Z,14.47
2022-12-03T01:04:19.449Z,14.73
2022-12-03T01:06:47.367Z,16.23
2022-12-03T01:09:15.212Z,15.37
2022-12-03T01:11:42.646Z,15.30
2022-12-03T01:14:12.093Z,17.20
2022-12-03T01:16:39.903Z,16.03
2022-12-03T01:19:07.684Z,15.03
2022-12-03T01:21:35.087Z,15.03
2022-12-03T01:24:02.597Z,15.13
2022-12-03T01:26:31.262Z,17.07
2022-12-03T01:28:58.716Z,15.23
2022-12-03T01:31:44.614Z,14.50
2022-12-03T01:34:12.131Z,14.70
2022-12-03T01:36:40.632Z,14.97
2022-12-03T01:39:08.267Z,14.63
2022-12-03T01:41:36.405Z,14.73
2022-12-03T01:44:05.282Z,14.37
2022-12-03T01:46:36.058Z,13.67
2022-12-03T01:49:03.607Z,14.47
2022-12-03T01:51:31.304Z,13.80
2022-12-03T01:53:59.526Z,13.70
2022-12-03T01:56:26.929Z,14.43
2022-12-03T01:58:54.407Z,13.60
2022-12-03T02:01:22.004Z,14.97
2022-12-03T02:03:49.588Z,14.40
2022-12-03T02:06:18.777Z,14.00
2022-12-03T02:08:46.571Z,12.47
2022-12-03T02:11:21.653Z,12.80
2022-12-03T02:13:51.565Z,12.73
2022-12-03T02:16:19.123Z,13.00
2022-12-03T02:18:46.623Z,12.17
2022-12-03T02:21:18.280Z,12.60
2022-12-03T02:23:59.102Z,14.57
2022-12-03T02:26:27.941Z,13.23
2022-12-03T02:28:55.324Z,12.83
2022-12-03T02:31:23.230Z,13.60
2022-12-03T02:33:51.010Z,12.67
2022-12-03T02:36:18.585Z,13.13
2022-12-03T02:38:46.480Z,13.53
2022-12-03T02:41:36.681Z,13.40
2022-12-03T02:44:06.308Z,11.03
2022-12-03T02:46:33.789Z,12.83
2022-12-03T02:49:01.870Z,13.67
2022-12-03T02:51:29.415Z,11.77
2022-12-03T02:53:58.086Z,13.90
2022-12-03T02:56:28.200Z,11.03
2022-12-03T02:58:57.468Z,11.90
2022-12-03T03:01:25.496Z,12.60
2022-12-03T03:03:53.486Z,11.87
2022-12-03T03:06:21.343Z,10.70
2022-12-03T03:08:48.965Z,10.80
2022-12-03T03:11:16.417Z,9.73
2022-12-03T03:13:43.867Z,11.30
2022-12-03T03:16:11.322Z,11.87
2022-12-03T03:18:38.907Z,12.03
2022-12-03T03:21:06.309Z,11.77
2022-12-03T03:23:33.775Z,13.27
2022-12-03T03:26:08.785Z,10.30
2022-12-03T03:28:38.273Z,10.47
2022-12-03T03:31:07.359Z,11.53
2022-12-03T03:33:34.719Z,10.60
2022-12-03T03:36:02.088Z,10.37
2022-12-03T03:38:29.992Z,11.17
2022-12-03T03:40:58.696Z,10.43
2022-12-03T03:43:26.156Z,9.40
2022-12-03T03:45:54.277Z,13.30
2022-12-03T03:48:22.937Z,10.73
2022-12-03T03:50:52.078Z,11.60
2022-12-03T03:53:35.586Z,10.50
2022-12-03T03:56:02.981Z,10.57
2022-12-03T03:58:32.539Z,10.90
2022-12-03T04:00:59.787Z,10.23
2022-12-03T04:03:27.525Z,11.27
2022-12-03T04:05:54.689Z,10.67
2022-12-03T04:08:22.234Z,10.50
2022-12-03T04:11:08.053Z,10.40
2022-12-03T04:13:35.171Z,10.60
2022-12-03T04:16:02.383Z,11.00
2022-12-03T04:18:44.789Z,9.30
2022-12-03T04:21:37.889Z,10.87
2022-12-03T04:24:05.339Z,11.23
2022-12-03T04:26:51.029Z,10.67
2022-12-03T04:29:18.977Z,9.73
2022-12-03T04:32:05.321Z,11.00
2022-12-03T04:34:52.178Z,9.33
2022-12-03T04:37:19.897Z,8.67
2022-12-03T04:39:47.085Z,10.40
2022-12-03T04:42:14.304Z,11.37
2022-12-03T04:44:41.440Z,10.70
2022-12-03T04:47:14.039Z,10.40
2022-12-03T04:49:45.759Z,10.27
2022-12-03T04:52:13.702Z,10.80
2022-12-03T04:54:41.348Z,9.77
2022-12-03T04:57:09.362Z,9.07
2022-12-03T04:59:37.235Z,11.13
2022-12-03T05:02:05.108Z,10.47
2022-12-03T05:04:33.053Z,9.30
2022-12-03T05:07:00.316Z,9.87
2022-12-03T05:09:27.487Z,10.40
2022-12-03T05:11:54.604Z,10.40
2022-12-03T05:14:21.801Z,10.57
2022-12-03T05:16:51.328Z,9.40
2022-12-03T05:19:18.558Z,9.30
2022-12-03T05:21:45.715Z,9.73
2022-12-03T05:24:12.883Z,9.60
2022-12-03T05:26:40.019Z,10.60
2022-12-03T05:29:07.207Z,10.20
2022-12-03T05:31:34.336Z,12.03
2022-12-03T05:34:01.462Z,10.10
2022-12-03T05:36:28.596Z,9.10
2022-12-03T05:38:55.738Z,10.87
2022-12-03T05:41:41.598Z,10.00
2022-12-03T05:44:08.744Z,10.60
2022-12-03T05:46:35.949Z,9.73
2022-12-03T05:49:03.183Z,9.83
2022-12-03T05:51:30.320Z,9.90
2022-12-03T05:53:57.574Z,10.63
2022-12-03T05:56:24.824Z,10.00
2022-12-03T05:58:52.182Z,9.67
2022-12-03T06:01:19.299Z,10.80
2022-12-03T06:03:46.812Z,10.10
2022-12-03T06:06:14.142Z,11.20
2022-12-03T06:08:41.301Z,9.93
2022-12-03T06:11:08.448Z,10.60
2022-12-03T06:13:35.583Z,10.33
2022-12-03T06:16:02.811Z,10.47
2022-12-03T06:18:30.169Z,10.63
2022-12-03T06:20:58.371Z,10.60
2022-12-03T06:23:25.871Z,10.63
2022-12-03T06:25:53.254Z,9.80
2022-12-03T06:28:20.373Z,10.27
2022-12-03T06:30:47.590Z,9.73
2022-12-03T06:33:14.819Z,9.63
2022-12-03T06:35:41.970Z,10.30
2022-12-03T06:38:09.129Z,9.33
2022-12-03T06:40:38.167Z,9.63
2022-12-03T06:43:05.435Z,10.87
2022-12-03T06:45:32.564Z,11.50
2022-12-03T06:47:59.659Z,9.73
2022-12-03T06:50:26.828Z,9.80
2022-12-03T06:52:53.943Z,9.33
2022-12-03T06:55:21.156Z,9.87
2022-12-03T06:57:48.278Z,10.47
2022-12-03T07:00:17.679Z,9.90
2022-12-03T07:02:44.949Z,10.07
2022-12-03T07:05:13.911Z,9.37
2022-12-03T07:07:41.176Z,9.87
2022-12-03T07:10:08.704Z,10.63
2022-12-03T07:12:37.795Z,10.67
2022-12-03T07:15:05.148Z,10.50
2022-12-03T07:17:32.263Z,10.30
2022-12-03T07:19:59.449Z,11.10
2022-12-03T07:22:26.605Z,9.97
2022-12-03T07:24:54.393Z,10.90
2022-12-03T07:27:21.814Z,11.27
2022-12-03T07:29:48.966Z,11.70
2022-12-03T07:32:16.101Z,9.50
2022-12-03T07:34:43.206Z,9.43
2022-12-03T07:37:10.329Z,10.60
2022-12-03T07:39:37.578Z,11.53
2022-12-03T07:42:04.790Z,10.77
2022-12-03T07:44:32.000Z,10.17
2022-12-03T07:46:59.196Z,10.80
2022-12-03T07:49:26.938Z,9.70
2022-12-03T07:51:54.362Z,11.73
2022-12-03T07:54:22.109Z,12.17
2022-12-03T07:56:49.264Z,12.70
2022-12-03T07:59:17.360Z,11.10
2022-12-03T08:01:44.938Z,10.87
2022-12-03T08:04:18.154Z,11.23
2022-12-03T08:06:45.923Z,11.03
2022-12-03T08:09:16.249Z,10.90
2022-12-03T08:11:45.055Z,11.90
2022-12-03T08:14:13.632Z,11.87
2022-12-03T08:16:41.338Z,12.30
2022-12-03T08:19:12.445Z,12.47
2022-12-03T08:21:41.507Z,11.83
2022-12-03T08:24:13.696Z,13.20
2022-12-03T08:26:42.490Z,10.77
2022-12-03T08:29:10.105Z,10.63
2022-12-03T08:31:37.391Z,12.63
2022-12-03T08:34:21.056Z,12.37
2022-12-03T08:36:51.775Z,12.93
2022-12-03T08:39:33.122Z,14.07
2022-12-03T08:42:29.308Z,12.70
2022-12-03T08:44:56.987Z,14.17
2022-12-03T08:47:25.035Z,12.60
2022-12-03T08:49:55.104Z,12.87
2022-12-03T08:52:23.414Z,12.27
2022-12-03T08:54:54.587Z,12.80
2022-12-03T08:57:27.527Z,13.70
2022-12-03T08:59:56.940Z,14.57
2022-12-03T09:02:29.260Z,13.83
2022-12-03T09:04:56.727Z,12.70
2022-12-03T09:07:24.055Z,13.17
2022-12-03T09:09:51.483Z,13.07
2022-12-03T09:12:18.609Z,14.40
2022-12-03T09:14:45.716Z,12.33
2022-12-03T09:17:13.164Z,13.50
2022-12-03T09:19:46.281Z,14.10
2022-12-03T09:22:15.103Z,15.20
2022-12-03T09:24:42.315Z,14.83
2022-12-03T09:27:09.493Z,14.43
2022-12-03T09:29:36.636Z,13.60
2022-12-03T09:32:03.928Z,14.70
2022-12-03T09:34:31.099Z,15.43
2022-12-03T09:36:58.351Z,12.97
2022-12-03T09:39:25.498Z,13.73
2022-12-03T09:41:54.728Z,15.07
2022-12-03T09:44:23.036Z,15.60
2022-12-03T09:46:51.518Z,14.27
2022-12-03T09:49:19.800Z,17.43
2022-12-03T09:51:47.174Z,14.73
2022-12-03T09:54:22.658Z,14.77
2022-12-03T09:56:49.933Z,17.00
2022-12-03T09:59:17.824Z,14.87
2022-12-03T10:01:45.073Z,15.90
2022-12-03T10:04:12.501Z,14.60
2022-12-03T10:06:45.556Z,14.07
2022-12-03T10:09:14.398Z,15.40
2022-12-03T10:11:42.555Z,17.93
2022-12-03T10:14:12.916Z,16.60
2022-12-03T10:16:40.600Z,16.13
2022-12-03T10:19:10.252Z,15.47
2022-12-03T10:21:38.137Z,16.33
2022-12-03T10:24:18.499Z,17.27
2022-12-03T10:26:46.261Z,16.17
2022-12-03T10:29:14.314Z,16.80
2022-12-03T10:31:43.603Z,14.93
2022-12-03T10:34:11.452Z,14.80
2022-12-03T10:36:38.868Z,16.13
2022-12-03T10:39:13.488Z,17.00
2022-12-03T10:41:42.896Z,16.37
2022-12-03T10:44:15.088Z,18.00
2022-12-03T10:46:42.742Z,16.93
2022-12-03T10:49:17.430Z,16.83
2022-12-03T10:51:45.771Z,16.47
2022-12-03T10:54:23.697Z,18.00
2022-12-03T10:56:52.103Z,15.80
2022-12-03T10:59:21.564Z,17.70
2022-12-03T11:01:48.999Z,18.67
2022-12-03T11:04:21.040Z,16.87
2022-12-03T11:06:48.378Z,18.50
2022-12-03T11:09:19.975Z,18.10
2022-12-03T11:11:47.237Z,17.70
2022-12-03T11:14:19.615Z,16.17
2022-12-03T11:16:53.576Z,17.33
2022-12-03T11:19:40.653Z,18.93
2022-12-03T11:22:10.626Z,19.50
2022-12-03T11:24:38.929Z,16.67
2022-12-03T11:27:06.824Z,18.50
2022-12-03T11:29:53.586Z,17.90
2022-12-03T11:32:53.084Z,17.53
2022-12-03T11:35:27.920Z,16.30
2022-12-03T11:37:55.126Z,15.80
2022-12-03T11:40:22.262Z,16.20
2022-12-03T11:42:49.935Z,18.20
2022-12-03T11:45:19.259Z,17.40
2022-12-03T11:47:48.613Z,17.93
2022-12-03T11:50:28.023Z,19.30
2022-12-03T11:53:13.050Z,18.23
2022-12-03T11:56:02.892Z,17.87
2022-12-03T11:58:36.538Z,16.93
2022-12-03T12:01:05.344Z,17.57
2022-12-03T12:03:34.610Z,17.53
2022-12-03T12:06:06.015Z,18.60
2022-12-03T12:08:34.184Z,17.90
2022-12-03T12:11:02.136Z,18.03
2022-12-03T12:13:48.955Z,18.93
2022-12-03T12:16:36.137Z,18.93
2022-12-03T12:19:22.063Z,18.07
2022-12-03T12:21:50.248Z,17.30
2022-12-03T12:24:36.483Z,17.77
2022-12-03T12:27:06.756Z,19.97
2022-12-03T12:29:34.265Z,17.00
2022-12-03T12:32:12.996Z,17.07
2022-12-03T12:34:41.036Z,18.00
2022-12-03T12:37:12.954Z,17.13
2022-12-03T12:39:40.183Z,19.27
2022-12-03T12:42:19.800Z,19.00
2022-12-03T12:44:46.951Z,17.70
2022-12-03T12:47:14.191Z,18.10
2022-12-03T12:49:45.125Z,16.77
2022-12-03T12:52:15.039Z,17.63
2022-12-03T12:54:42.203Z,17.30
2022-12-03T12:57:21.492Z,19.13
2022-12-03T12:59:48.811Z,18.60
2022-12-03T13:02:32.168Z,17.83
2022-12-03T13:05:01.956Z,18.30
2022-12-03T13:07:29.211Z,18.13
2022-12-03T13:09:56.998Z,18.63
2022-12-03T13:12:24.611Z,17.03
2022-12-03T13:14:52.296Z,18.40
2022-12-03T13:17:24.278Z,19.40
2022-12-03T13:20:00.494Z,19.13
2022-12-03T13:22:32.497Z,19.13
2022-12-03T13:25:03.751Z,17.93
2022-12-03T13:27:31.282Z,18.70
2022-12-03T13:30:02.693Z,18.23
2022-12-03T13:32:30.950Z,17.90
2022-12-03T13:35:06.116Z,17.77
2022-12-03T13:37:33.906Z,16.60
2022-12-03T13:40:08.938Z,18.93
2022-12-03T13:42:45.073Z,17.47
2022-12-03T13:45:15.286Z,19.57
2022-12-03T13:47:49.924Z,18.40
2022-12-03T13:50:36.420Z,17.80
2022-12-03T13:53:08.197Z,19.70
2022-12-03T13:55:35.697Z,19.10
2022-12-03T13:58:02.926Z,18.20
2022-12-03T14:00:30.074Z,16.80
2022-12-03T14:02:57.225Z,18.67
2022-12-03T14:05:24.371Z,19.50
2022-12-03T14:07:51.641Z,19.90
2022-12-03T14:10:18.871Z,16.70
2022-12-03T14:12:46.022Z,18.97
2022-12-03T14:15:14.375Z,18.73
2022-12-03T14:17:41.578Z,18.83
2022-12-03T14:20:09.446Z,18.00
2022-12-03T14:22:37.962Z,17.40
2022-12-03T14:25:06.259Z,20.20
2022-12-03T14:27:33.825Z,19.47
2022-12-03T14:30:00.986Z,17.60
2022-12-03T14:32:28.293Z,19.10
2022-12-03T14:34:55.829Z,17.80
2022-12-03T14:37:22.999Z,16.80
2022-12-03T14:39:50.210Z,17.40
2022-12-03T14:42:18.204Z,19.47
2022-12-03T14:44:47.941Z,19.70
2022-12-03T14:47:15.982Z,21.30
2022-12-03T14:49:43.147Z,18.97
2022-12-03T14:52:12.535Z,18.30
2022-12-03T14:54:42.810Z,20.40
2022-12-03T14:57:11.355Z,20.80
2022-12-03T14:59:38.941Z,18.47
2022-12-03T15:02:07.320Z,17.27
2022-12-03T15:04:34.906Z,18.40
2022-12-03T15:07:02.031Z,18.17
2022-12-03T15:09:29.431Z,18.10
2022-12-03T15:11:56.613Z,19.00
2022-12-03T15:14:25.078Z,18.13
2022-12-03T15:16:52.325Z,17.87
2022-12-03T15:19:19.538Z,16.60
2022-12-03T15:21:46.646Z,18.03
2022-12-03T15:24:13.819Z,18.63
2022-12-03T15:26:40.951Z,19.90
2022-12-03T15:29:08.116Z,19.43
2022-12-03T15:31:36.738Z,18.47
2022-12-03T15:34:04.326Z,18.03
2022-12-03T15:36:31.436Z,18.03
2022-12-03T15:38:58.598Z,20.23
2022-12-03T15:41:31.027Z,18.33
2022-12-03T15:43:59.063Z,18.77
2022-12-03T15:46:27.743Z,19.40
2022-12-03T15:48:55.651Z,19.10
2022-12-03T15:51:22.787Z,17.43
2022-12-03T15:53:50.068Z,20.80
2022-12-03T15:56:17.219Z,20.70
2022-12-03T15:58:45.182Z,18.53
2022-12-03T16:01:13.479Z,17.80
2022-12-03T16:03:41.628Z,18.00
2022-12-03T16:06:08.791Z,17.90
2022-12-03T16:08:36.217Z,17.30
2022-12-03T16:11:04.332Z,18.63
2022-12-03T16:13:31.597Z,18.40
2022-12-03T16:15:59.784Z,18.47
2022-12-03T16:18:27.036Z,19.10
2022-12-03T16:20:54.929Z,19.77
2022-12-03T16:23:22.149Z,19.00
2022-12-03T16:25:49.244Z,19.17
2022-12-03T16:28:16.553Z,19.50
2022-12-03T16:30:43.684Z,19.00
2022-12-03T16:33:11.077Z,19.63
2022-12-03T16:35:38.505Z,18.80
2022-12-03T16:38:05.606Z,20.43
2022-12-03T16:40:32.729Z,20.73
2022-12-03T16:42:59.860Z,18.63
2022-12-03T16:45:29.736Z,18.20
2022-12-03T16:47:56.930Z,17.97
2022-12-03T16:50:29.584Z,17.60
2022-12-03T16:52:57.668Z,19.00
2022-12-03T16:55:24.766Z,19.40
2022-12-03T16:57:51.918Z,18.70
2022-12-03T17:00:21.597Z,17.33
2022-12-03T17:02:48.830Z,20.60
2022-12-03T17:05:16.066Z,20.40
2022-12-03T17:07:43.260Z,20.30
2022-12-03T17:10:10.839Z,20.60
2022-12-03T17:13:07.839Z,19.67
2022-12-03T17:15:26.036Z,20.93
2022-12-03T17:17:53.643Z,20.67
2022-12-03T17:20:21.929Z,19.50
2022-12-03T17:22:49.211Z,19.80
2022-12-03T17:25:16.782Z,25.40
2022-12-03T17:27:45.584Z,20.77
2022-12-03T17:30:13.303Z,19.80
2022-12-03T17:32:40.465Z,21.47
2022-12-03T17:35:08.107Z,19.50
2022-12-03T17:37:35.695Z,22.30
2022-12-03T17:40:02.992Z,21.97
2022-12-03T17:42:30.153Z,21.80
2022-12-03T17:44:57.283Z,23.80
2022-12-03T17:47:24.965Z,23.07
2022-12-03T17:49:52.436Z,20.30
2022-12-03T17:52:19.715Z,20.23
2022-12-03T17:55:10.128Z,20.60
2022-12-03T17:57:34.897Z,23.60
2022-12-03T18:00:02.013Z,24.27
2022-12-03T18:02:39.351Z,24.00
2022-12-03T18:05:07.023Z,23.37
2022-12-03T18:07:34.581Z,18.70
2022-12-03T18:10:02.047Z,21.97
2022-12-03T18:12:29.172Z,20.53
2022-12-03T18:14:56.416Z,19.80
2022-12-03T18:17:23.991Z,30.53
2022-12-03T18:19:51.355Z,23.33
2022-12-03T18:22:19.107Z,21.03
2022-12-03T18:24:48.902Z,25.20
2022-12-03T18:27:18.593Z,21.67
2022-12-03T18:29:48.323Z,19.37
2022-12-03T18:32:28.412Z,21.40
2022-12-03T18:34:56.723Z,18.90
2022-12-03T18:37:25.795Z,23.77
2022-12-03T18:39:53.353Z,22.03
2022-12-03T18:42:23.535Z,19.60
2022-12-03T18:44:51.595Z,20.53
2022-12-03T18:47:23.025Z,20.50
2022-12-03T18:49:50.636Z,23.27
2022-12-03T18:52:20.068Z,20.80
2022-12-03T18:54:47.556Z,20.40
2022-12-03T18:57:15.252Z,21.77
2022-12-03T18:59:42.573Z,19.40
2022-12-03T19:02:26.720Z,20.47
2022-12-03T19:05:00.514Z,22.93
2022-12-03T19:07:27.712Z,22.37
2022-12-03T19:09:55.202Z,21.93
2022-12-03T19:12:22.737Z,21.80
2022-12-03T19:14:50.950Z,21.77
2022-12-03T19:17:18.078Z,21.07
2022-12-03T19:19:46.314Z,22.10
2022-12-03T19:22:13.488Z,19.33
2022-12-03T19:24:40.602Z,20.27
2022-12-03T19:27:07.756Z,20.67
2022-12-03T19:29:35.118Z,19.97
2022-12-03T19:32:02.403Z,18.33
2022-12-03T19:34:29.639Z,19.30
2022-12-03T19:36:56.782Z,17.37
2022-12-03T19:39:24.190Z,18.93
2022-12-03T19:41:52.872Z,18.63
2022-12-03T19:44:19.969Z,17.13
2022-12-03T19:46:47.336Z,16.57
2022-12-03T19:49:16.571Z,17.07
2022-12-03T19:51:43.706Z,17.97
2022-12-03T19:54:11.728Z,16.00
2022-12-03T19:56:38.886Z,16.53
2022-12-03T19:59:06.269Z,17.50
2022-12-03T20:01:34.425Z,15.23
2022-12-03T20:04:02.826Z,16.90
2022-12-03T20:06:31.218Z,17.57
2022-12-03T20:09:02.775Z,19.43
2022-12-03T20:11:31.185Z,16.77
2022-12-03T20:13:59.604Z,18.03
2022-12-03T20:16:26.901Z,16.60
2022-12-03T20:18:57.459Z,16.23
2022-12-03T20:21:24.805Z,15.43
2022-12-03T20:23:51.971Z,17.77
2022-12-03T20:26:20.093Z,17.80
2022-12-03T20:28:50.620Z,16.73
2022-12-03T20:31:19.013Z,15.97
2022-12-03T20:33:47.806Z,16.30
2022-12-03T20:36:15.509Z,15.73
2022-12-03T20:38:42.690Z,16.13
2022-12-03T20:41:18.457Z,15.67
2022-12-03T20:43:46.056Z,16.23
2022-12-03T20:46:17.300Z,17.37
2022-12-03T20:48:45.345Z,16.63
2022-12-03T20:51:14.037Z,15.50
2022-12-03T20:53:41.538Z,16.67
2022-12-03T20:56:09.381Z,17.50
2022-12-03T20:58:36.884Z,15.30
2022-12-03T21:01:15.420Z,15.23
2022-12-03T21:03:43.301Z,17.77
2022-12-03T21:06:10.506Z,17.63
2022-12-03T21:08:41.394Z,15.03
2022-12-03T21:11:17.039Z,15.50
2022-12-03T21:13:46.067Z,17.73
2022-12-03T21:16:14.284Z,16.70
2022-12-03T21:18:41.767Z,14.10
2022-12-03T21:21:09.178Z,16.10
2022-12-03T21:23:36.395Z,18.37
2022-12-03T21:26:07.938Z,17.13
2022-12-03T21:28:35.166Z,19.57
2022-12-03T21:31:03.568Z,15.77
2022-12-03T21:33:31.064Z,17.80
2022-12-03T21:35:58.750Z,19.43
2022-12-03T21:38:26.424Z,18.00
2022-12-03T21:40:53.964Z,17.10
2022-12-03T21:43:21.220Z,17.63
2022-12-03T21:45:48.384Z,16.17
2022-12-03T21:48:15.656Z,18.07
2022-12-03T21:50:42.897Z,16.00
2022-12-03T21:53:10.077Z,20.47
2022-12-03T21:55:40.959Z,17.90
2022-12-03T21:58:08.720Z,15.50
2022-12-03T22:00:36.874Z,18.10
2022-12-03T22:03:04.082Z,16.63
2022-12-03T22:05:31.266Z,17.53
2022-12-03T22:07:59.535Z,17.30
2022-12-03T22:10:26.686Z,16.50
2022-12-03T22:12:53.828Z,17.57
2022-12-03T22:15:20.938Z,16.60
2022-12-03T22:17:48.298Z,16.63
2022-12-03T22:20:15.454Z,18.40
2022-12-03T22:22:42.614Z,16.90
2022-12-03T22:25:09.988Z,16.63
2022-12-03T22:27:37.120Z,15.60
2022-12-03T22:30:04.608Z,14.83
2022-12-03T22:32:31.804Z,16.90
2022-12-03T22:34:58.902Z,18.10
2022-12-03T22:37:26.013Z,15.57
2022-12-03T22:39:53.451Z,16.03
2022-12-03T22:42:20.852Z,16.03
2022-12-03T22:44:47.953Z,15.97
2022-12-03T22:47:15.057Z,16.40
2022-12-03T22:49:42.167Z,16.70
2022-12-03T22:52:09.315Z,15.03
2022-12-03T22:54:36.478Z,16.13
2022-12-03T22:57:03.678Z,16.10
2022-12-03T22:59:30.829Z,16.33
2022-12-03T23:01:58.006Z,15.77
2022-12-03T23:04:25.419Z,17.40
2022-12-03T23:06:53.501Z,14.70
2022-12-03T23:09:21.043Z,15.53
2022-12-03T23:11:48.571Z,15.23
2022-12-03T23:14:15.980Z,15.53
2022-12-03T23:16:43.376Z,14.97
2022-12-03T23:19:10.940Z,15.47
2022-12-03T23:21:38.412Z,15.43
2022-12-03T23:24:06.327Z,14.90
2022-12-03T23:26:34.932Z,15.97
2022-12-03T23:29:02.847Z,15.77
2022-12-03T23:31:31.465Z,15.40
2022-12-03T23:33:59.487Z,13.93
2022-12-03T23:36:28.976Z,13.67
2022-12-03T23:38:56.531Z,14.60
2022-12-03T23:41:24.563Z,14.63
2022-12-03T23:43:52.225Z,14.97
2022-12-03T23:46:27.185Z,14.33
2022-12-03T23:48:54.864Z,15.80
2022-12-03T23:51:24.039Z,16.00
2022-12-03T23:53:52.946Z,14.53
2022-12-03T23:56:22.044Z,15.37
2022-12-03T23:58:49.446Z,14.03
